Time;durP1;ratioP1;P1;durP2;ratioP2;P2;SDS_P1;SDS_P2;PMS_P1;PMS_P2;Temp;Humidity;BMP_temperature;BMP_pressure;BME280_temperature;BME280_humidity;BME280_pressure;Samples;Min_cycle;Max_cycle;Signal;HPM_P1;HPM_P2
2024/04/18 00:01:18;;;;;;;3.37;2.93;;;;;;;4.00;80.92;95005.09;5441132;26;20282;-79
2024/04/18 00:03:43;;;;;;;3.00;2.47;;;;;;;3.95;81.23;94999.50;5408093;26;20241;-79
2024/04/18 00:06:09;;;;;;;2.73;2.20;;;;;;;3.81;81.42;95000.59;5435787;26;20239;-78
2024/04/18 00:08:34;;;;;;;3.33;2.23;;;;;;;3.86;81.37;95000.22;5407102;26;20290;-79
2024/04/18 00:11:00;;;;;;;2.70;1.97;;;;;;;3.90;81.34;95004.19;5406404;26;20250;-79
2024/04/18 00:13:25;;;;;;;4.90;2.50;;;;;;;3.70;82.13;94998.84;5415305;26;20238;-80
2024/04/18 00:15:51;;;;;;;2.70;2.50;;;;;;;3.70;82.80;95000.59;5439694;26;20318;-79
2024/04/18 00:18:16;;;;;;;3.30;3.00;;;;;;;3.85;82.19;94996.03;5412543;26;20247;-78
2024/04/18 00:20:43;;;;;;;3.30;3.00;;;;;;;3.83;82.17;94997.91;5434406;26;20246;-78
2024/04/18 00:23:08;;;;;;;2.60;2.40;;;;;;;3.79;82.11;95001.63;5434391;26;20293;-79
2024/04/18 00:25:33;;;;;;;2.57;2.30;;;;;;;3.78;82.16;95002.56;5439496;26;20242;-79
2024/04/18 00:27:59;;;;;;;3.93;2.90;;;;;;;3.87;81.81;94999.28;5441790;26;20285;-80
2024/04/18 00:30:24;;;;;;;2.80;2.43;;;;;;;3.80;81.91;94998.13;5413322;26;20299;-79
2024/04/18 00:32:50;;;;;;;2.90;2.53;;;;;;;3.72;82.93;94995.38;5408061;26;20241;-80
2024/04/18 00:35:15;;;;;;;5.03;3.47;;;;;;;3.86;82.19;94992.53;5428238;26;20239;-79
2024/04/18 00:37:40;;;;;;;3.47;3.13;;;;;;;3.76;82.79;94992.44;5440015;26;20235;-79
2024/04/18 00:40:06;;;;;;;3.53;2.63;;;;;;;3.90;82.27;94991.34;5450646;26;20328;-78
2024/04/18 00:42:31;;;;;;;3.87;3.00;;;;;;;3.91;82.20;94991.22;5449144;26;20294;-77
2024/04/18 00:44:57;;;;;;;3.77;3.17;;;;;;;3.90;81.94;94989.59;5425253;26;20258;-77
2024/04/18 00:47:22;;;;;;;4.47;2.60;;;;;;;3.93;82.50;94993.69;5435549;26;20286;-78
2024/04/18 00:49:47;;;;;;;3.47;3.17;;;;;;;3.96;82.42;95001.13;5454129;26;20242;-79
2024/04/18 00:52:18;;;;;;;4.37;3.10;;;;;;;4.04;81.99;94993.63;5440873;26;20236;-79
2024/04/18 00:54:44;;;;;;;3.90;2.73;;;;;;;4.03;82.12;94994.56;5438448;26;20291;-77
2024/04/18 00:57:10;;;;;;;3.03;2.50;;;;;;;3.88;82.03;95004.28;5443849;26;20571;-78
2024/04/18 00:59:36;;;;;;;3.20;2.90;;;;;;;4.06;82.38;94998.66;5457042;26;20239;-78
2024/04/18 01:02:01;;;;;;;3.37;3.07;;;;;;;4.11;82.82;95005.06;5439955;26;20246;-79
2024/04/18 01:04:26;;;;;;;3.70;2.80;;;;;;;4.02;82.87;95000.66;5409069;26;20270;-79
2024/04/18 01:06:52;;;;;;;4.70;3.33;;;;;;;4.10;82.82;95000.88;5439494;26;20280;-78
2024/04/18 01:09:18;;;;;;;5.10;3.20;;;;;;;4.09;82.42;94998.44;5445485;26;21016;-78
2024/04/18 01:11:43;;;;;;;3.17;2.87;;;;;;;4.17;81.97;94999.44;5406682;26;20264;-79
2024/04/18 01:14:09;;;;;;;3.27;2.83;;;;;;;4.19;82.27;95005.28;5438014;26;20268;-79
2024/04/18 01:16:35;;;;;;;5.27;3.00;;;;;;;4.04;82.25;95003.91;5438997;26;20231;-78
2024/04/18 01:19:00;;;;;;;2.80;2.60;;;;;;;4.06;83.12;94999.47;5441406;26;20831;-78
2024/04/18 01:21:25;;;;;;;3.47;3.17;;;;;;;4.15;82.74;94995.34;5436740;26;20732;-78
2024/04/18 01:23:51;;;;;;;2.93;2.50;;;;;;;4.11;82.00;94997.34;5392125;26;20275;-78
2024/04/18 01:26:18;;;;;;;3.13;2.83;;;;;;;4.15;83.12;95003.91;5412949;26;20239;-78
2024/04/18 01:28:43;;;;;;;3.10;2.80;;;;;;;4.24;82.60;95000.59;5437524;26;20239;-79
2024/04/18 01:31:08;;;;;;;2.90;2.57;;;;;;;4.21;82.59;95005.16;5412569;26;20247;-79
2024/04/18 01:33:34;;;;;;;3.97;2.87;;;;;;;4.20;82.86;95004.34;5445615;26;20250;-78
2024/04/18 01:35:59;;;;;;;4.10;2.93;;;;;;;4.14;82.66;94999.69;5415445;26;20239;-79
2024/04/18 01:38:24;;;;;;;3.03;2.50;;;;;;;4.19;82.25;94999.31;5441658;26;20940;-77
2024/04/18 01:40:50;;;;;;;3.27;2.57;;;;;;;4.25;82.61;95006.56;5440084;26;20259;-79
2024/04/18 01:43:15;;;;;;;3.20;2.90;;;;;;;4.28;82.08;95011.44;5408392;26;20243;-79
2024/04/18 01:45:40;;;;;;;5.23;3.37;;;;;;;4.28;82.92;95013.19;5442293;26;20243;-79
2024/04/18 01:48:06;;;;;;;5.00;3.57;;;;;;;4.34;82.57;95015.28;5444921;26;20494;-80
2024/04/18 01:50:31;;;;;;;5.13;3.50;;;;;;;4.37;82.35;95013.28;5432166;26;20250;-78
2024/04/18 01:52:56;;;;;;;4.87;3.93;;;;;;;4.22;83.10;95010.16;5438761;26;20237;-80
2024/04/18 01:55:22;;;;;;;3.83;3.53;;;;;;;4.24;83.01;95008.31;5410606;26;20257;-77
2024/04/18 01:57:47;;;;;;;4.13;3.73;;;;;;;4.32;82.68;95012.00;5443070;26;20278;-77
2024/04/18 02:00:12;;;;;;;5.80;3.80;;;;;;;4.36;83.48;95008.25;5400485;26;20312;-78
2024/04/18 02:02:38;;;;;;;3.60;3.30;;;;;;;4.36;83.11;95015.97;5440404;26;20309;-77
2024/04/18 02:05:03;;;;;;;4.23;3.80;;;;;;;4.42;83.24;95011.16;5444296;26;20288;-77
2024/04/18 02:07:29;;;;;;;4.83;4.07;;;;;;;4.48;82.97;95009.84;5441661;26;20234;-78
2024/04/18 02:09:54;;;;;;;4.97;3.93;;;;;;;4.45;82.79;95005.75;5395138;26;20281;-80
2024/04/18 02:12:19;;;;;;;5.27;3.37;;;;;;;4.39;83.38;95019.09;5447566;26;20280;-79
2024/04/18 02:14:45;;;;;;;4.73;4.17;;;;;;;4.45;83.65;95016.06;5437522;26;20573;-80
2024/04/18 02:17:10;;;;;;;3.67;3.33;;;;;;;4.33;83.57;95018.78;5410995;26;20244;-80
2024/04/18 02:19:35;;;;;;;5.30;3.27;;;;;;;4.37;83.53;95022.75;5439199;26;20304;-79
2024/04/18 02:22:01;;;;;;;4.10;3.60;;;;;;;4.43;83.79;95019.69;5426659;26;20345;-78
2024/04/18 02:24:26;;;;;;;4.73;3.90;;;;;;;4.37;83.51;95017.59;5448558;26;20319;-79
2024/04/18 02:26:52;;;;;;;4.87;3.07;;;;;;;4.43;83.70;95019.69;5414065;26;20245;-78
2024/04/18 02:29:17;;;;;;;5.10;3.40;;;;;;;4.39;83.88;95013.16;5436295;26;20255;-78
2024/04/18 02:31:42;;;;;;;4.40;3.57;;;;;;;4.44;83.45;95024.69;5436563;26;20247;-79
2024/04/18 02:34:08;;;;;;;4.37;3.97;;;;;;;4.42;84.04;95015.50;5432586;26;20249;-78
2024/04/18 02:36:33;;;;;;;3.57;3.27;;;;;;;4.50;83.28;95018.22;5424538;26;20261;-79
2024/04/18 02:38:58;;;;;;;3.87;3.50;;;;;;;4.43;83.06;95019.69;5407599;26;20763;-79
2024/04/18 02:41:24;;;;;;;3.80;3.50;;;;;;;4.47;83.28;95015.91;5437471;26;20240;-78
2024/04/18 02:43:55;;;;;;;3.80;3.50;;;;;;;4.41;83.01;95018.97;5408647;26;20239;-79
2024/04/18 02:46:21;;;;;;;4.40;3.53;;;;;;;4.39;83.65;95021.66;5430775;26;20242;-79
2024/04/18 02:48:46;;;;;;;3.70;3.40;;;;;;;4.34;83.45;95020.44;5446444;26;20285;-79
2024/04/18 02:51:11;;;;;;;4.00;3.60;;;;;;;4.35;83.94;95024.63;5406891;26;20251;-79
2024/04/18 02:53:37;;;;;;;3.80;3.50;;;;;;;4.37;84.15;95027.88;5402617;26;20414;-79
2024/04/18 02:56:02;;;;;;;4.03;3.63;;;;;;;4.17;84.11;95021.75;5434374;26;20277;-78
2024/04/18 02:58:27;;;;;;;5.57;3.67;;;;;;;4.30;84.64;95021.59;5443804;26;20273;-80
2024/04/18 03:00:53;;;;;;;4.80;4.27;;;;;;;4.32;84.83;95025.66;5407691;26;20246;-78
2024/04/18 03:03:18;;;;;;;4.77;4.27;;;;;;;4.37;84.82;95028.69;5434709;26;20269;-79
2024/04/18 03:05:43;;;;;;;3.90;3.50;;;;;;;4.30;84.47;95026.72;5435912;26;20232;-79
2024/04/18 03:08:09;;;;;;;6.67;4.37;;;;;;;4.30;85.15;95024.97;5439677;26;20726;-80
2024/04/18 03:10:34;;;;;;;4.47;4.03;;;;;;;4.34;84.82;95030.72;5398529;26;20262;-79
2024/04/18 03:12:59;;;;;;;3.90;3.60;;;;;;;4.33;85.05;95026.47;5395165;26;20242;-79
2024/04/18 03:15:25;;;;;;;4.67;4.20;;;;;;;4.38;84.54;95030.31;5440006;26;20718;-79
2024/04/18 03:17:51;;;;;;;6.40;4.20;;;;;;;4.47;84.34;95026.19;5442725;26;20242;-78
2024/04/18 03:20:17;;;;;;;4.23;3.83;;;;;;;4.46;84.79;95035.66;5411226;26;20405;-79
2024/04/18 03:22:42;;;;;;;4.13;3.77;;;;;;;4.07;85.24;95031.97;5437076;26;20277;-78
2024/04/18 03:25:07;;;;;;;4.30;3.93;;;;;;;4.24;85.50;95035.75;5433152;26;20249;-79
2024/04/18 03:27:33;;;;;;;4.63;4.23;;;;;;;4.30;85.67;95035.25;5438428;26;20276;-79
2024/04/18 03:29:58;;;;;;;4.87;4.47;;;;;;;4.35;85.92;95032.34;5438848;26;20724;-79
2024/04/18 03:32:25;;;;;;;4.83;4.03;;;;;;;4.29;85.69;95035.38;5437778;26;20238;-79
2024/04/18 03:34:50;;;;;;;4.03;3.63;;;;;;;4.27;85.65;95038.09;5404097;26;20396;-79
2024/04/18 03:37:16;;;;;;;4.00;3.70;;;;;;;3.93;85.97;95037.34;5430148;26;20249;-79
2024/04/18 03:39:41;;;;;;;4.67;3.87;;;;;;;4.18;86.44;95038.81;5405795;26;20242;-79
2024/04/18 03:42:06;;;;;;;5.03;4.47;;;;;;;4.29;86.45;95040.53;5438133;26;20253;-78
2024/04/18 03:44:31;;;;;;;4.83;3.77;;;;;;;4.14;85.99;95045.13;5448861;26;20342;-79
2024/04/18 03:46:57;;;;;;;4.00;3.60;;;;;;;4.16;85.79;95045.84;5416184;26;20246;-79
2024/04/18 03:49:22;;;;;;;5.57;3.93;;;;;;;4.28;85.96;95049.19;5399929;26;20246;-79
2024/04/18 03:51:48;;;;;;;4.60;4.13;;;;;;;4.32;85.32;95046.22;5446161;26;20244;-78
2024/04/18 03:54:13;;;;;;;4.63;4.23;;;;;;;4.28;85.15;95050.00;5438402;26;20235;-77
2024/04/18 03:56:38;;;;;;;4.53;4.03;;;;;;;4.35;85.45;95051.16;5433386;26;20238;-79
2024/04/18 03:59:04;;;;;;;4.20;3.80;;;;;;;4.35;85.50;95051.16;5435408;26;20324;-79
2024/04/18 04:01:29;;;;;;;5.53;4.43;;;;;;;4.29;85.36;95050.81;5442560;26;20239;-78
2024/04/18 04:03:55;;;;;;;4.37;3.97;;;;;;;4.20;84.94;95058.31;5436864;26;20328;-79
2024/04/18 04:06:21;;;;;;;4.30;3.90;;;;;;;4.25;85.62;95058.78;5437892;26;20281;-77
2024/04/18 04:08:47;;;;;;;5.30;4.67;;;;;;;4.26;84.97;95057.00;5406944;26;20239;-79
2024/04/18 04:11:13;;;;;;;4.77;4.27;;;;;;;4.28;84.85;95065.41;5451490;26;20242;-79
2024/04/18 04:13:38;;;;;;;5.30;4.80;;;;;;;4.27;85.29;95061.22;5429092;26;20231;-78
2024/04/18 04:16:04;;;;;;;4.97;4.47;;;;;;;4.30;84.63;95067.88;5437894;26;20285;-77
2024/04/18 04:18:29;;;;;;;4.23;3.93;;;;;;;4.34;84.42;95067.50;5408581;26;20297;-78
2024/04/18 04:20:54;;;;;;;5.60;4.80;;;;;;;4.24;84.67;95070.00;5421084;26;20248;-79
2024/04/18 04:23:20;;;;;;;7.17;6.47;;;;;;;4.35;85.14;95069.13;5396338;26;20276;-78
2024/04/18 04:25:45;;;;;;;5.90;5.30;;;;;;;4.28;85.19;95074.88;5433182;26;20243;-77
2024/04/18 04:28:10;;;;;;;7.33;6.63;;;;;;;4.39;85.30;95078.22;5424356;26;20238;-79
2024/04/18 04:30:35;;;;;;;6.63;6.03;;;;;;;4.42;85.71;95077.19;5400207;26;20251;-78
2024/04/18 04:33:01;;;;;;;6.07;5.47;;;;;;;4.37;85.43;95089.59;5430953;26;20658;-78
2024/04/18 04:35:26;;;;;;;6.23;5.60;;;;;;;4.24;85.61;95084.56;5390093;26;20236;-79
2024/04/18 04:37:51;;;;;;;6.40;5.80;;;;;;;4.28;86.47;95085.16;5445164;26;20720;-79
2024/04/18 04:40:17;;;;;;;6.33;5.73;;;;;;;4.38;85.90;95093.78;5435964;26;20236;-79
2024/04/18 04:42:42;;;;;;;6.80;6.10;;;;;;;4.36;85.91;95101.63;5410672;26;20508;-79
2024/04/18 04:45:07;;;;;;;7.00;5.90;;;;;;;4.34;85.51;95103.50;5442297;26;20292;-79
2024/04/18 04:47:33;;;;;;;6.70;5.50;;;;;;;4.37;85.80;95107.56;5434532;26;20743;-78
2024/04/18 04:49:58;;;;;;;6.50;5.90;;;;;;;4.39;85.41;95106.50;5385020;26;20248;-78
2024/04/18 04:52:24;;;;;;;7.03;6.33;;;;;;;4.35;85.46;95106.88;5428592;26;20247;-78
2024/04/18 04:54:49;;;;;;;5.87;5.27;;;;;;;4.35;85.48;95117.16;5433305;26;20238;-77
2024/04/18 04:57:15;;;;;;;6.43;5.83;;;;;;;4.35;84.98;95112.84;5439552;26;20226;-78
2024/04/18 04:59:40;;;;;;;6.73;5.97;;;;;;;4.48;84.67;95118.63;5397422;26;20254;-79
2024/04/18 05:02:06;;;;;;;6.37;5.77;;;;;;;4.49;85.00;95127.16;5394925;26;20250;-77
2024/04/18 05:04:31;;;;;;;6.60;5.93;;;;;;;4.46;84.68;95130.81;5432740;26;20283;-79
2024/04/18 05:06:57;;;;;;;8.77;6.53;;;;;;;4.44;85.00;95131.88;5406285;26;20268;-78
2024/04/18 05:09:22;;;;;;;7.50;6.67;;;;;;;4.47;84.44;95132.44;5438855;26;20581;-79
2024/04/18 05:11:48;;;;;;;6.90;6.30;;;;;;;4.32;84.58;95143.91;5446966;26;20358;-78
2024/04/18 05:14:13;;;;;;;6.83;6.13;;;;;;;4.16;85.77;95143.50;5439896;26;20234;-77
2024/04/18 05:16:39;;;;;;;7.33;6.63;;;;;;;4.34;85.36;95142.06;5436933;26;20235;-78
2024/04/18 05:19:04;;;;;;;7.03;6.33;;;;;;;4.33;86.15;95147.28;5403967;26;20608;-77
2024/04/18 05:21:31;;;;;;;6.50;5.90;;;;;;;4.44;85.65;95145.53;5426418;26;20293;-78
2024/04/18 05:23:56;;;;;;;6.80;6.20;;;;;;;4.45;85.50;95148.94;5445244;26;20319;-78
2024/04/18 05:26:24;;;;;;;7.23;6.00;;;;;;;4.46;85.33;95146.22;5437372;26;20252;-78
2024/04/18 05:31:33;;;;;;;7.00;5.90;;;;;;;4.54;84.81;95153.34;5432377;26;20632;-79
2024/04/18 05:33:58;;;;;;;7.43;6.73;;;;;;;4.53;85.05;95157.69;5396754;26;20242;-78
2024/04/18 05:36:24;;;;;;;12.13;11.13;;;;;;;4.38;84.75;95158.88;5442060;26;20234;-78
2024/04/18 05:38:49;;;;;;;11.30;10.30;;;;;;;4.54;84.93;95154.16;5428829;26;20235;-78
2024/04/18 05:41:14;;;;;;;9.30;7.73;;;;;;;4.60;84.97;95164.91;5430032;26;20279;-78
2024/04/18 05:43:39;;;;;;;8.33;7.53;;;;;;;4.72;85.33;95167.34;5434769;26;20278;-79
2024/04/18 05:46:05;;;;;;;8.30;7.50;;;;;;;4.74;84.74;95178.31;5436688;26;20745;-80
2024/04/18 05:48:30;;;;;;;8.67;7.80;;;;;;;4.68;85.15;95173.66;5428336;26;20298;-78
2024/04/18 05:50:56;;;;;;;6.60;6.00;;;;;;;4.71;85.33;95176.00;5391239;26;20274;-79
2024/04/18 05:53:22;;;;;;;6.70;6.03;;;;;;;4.86;84.79;95175.69;5425672;26;20281;-79
2024/04/18 05:55:47;;;;;;;8.30;7.53;;;;;;;4.81;84.96;95182.03;5408163;26;20268;-80
2024/04/18 05:58:13;;;;;;;7.47;6.77;;;;;;;4.75;85.13;95192.81;5437350;26;20719;-80
2024/04/18 06:00:38;;;;;;;5.93;5.43;;;;;;;4.88;84.80;95190.09;5428432;26;20289;-79
2024/04/18 06:03:04;;;;;;;5.80;5.30;;;;;;;4.99;84.53;95191.81;5445320;26;20241;-79
2024/04/18 06:05:29;;;;;;;5.00;4.50;;;;;;;4.95;83.54;95200.72;5397717;26;20243;-79
2024/04/18 06:07:55;;;;;;;16.37;13.80;;;;;;;4.88;83.51;95199.56;5432473;26;20246;-80
2024/04/18 06:10:21;;;;;;;8.03;7.13;;;;;;;4.98;83.70;95201.28;5418811;26;20242;-79
2024/04/18 06:12:46;;;;;;;10.93;8.70;;;;;;;4.91;83.52;95209.59;5394417;26;20243;-78
2024/04/18 06:15:11;;;;;;;8.90;8.00;;;;;;;4.92;83.80;95213.81;5428741;26;20250;-78
2024/04/18 06:17:37;;;;;;;6.50;4.80;;;;;;;4.93;83.39;95210.28;5432575;26;20235;-79
2024/04/18 06:20:03;;;;;;;3.80;3.50;;;;;;;4.83;83.42;95211.03;5437360;26;20297;-79
2024/04/18 06:22:29;;;;;;;12.37;8.40;;;;;;;4.78;83.66;95220.88;5433783;26;20342;-80
2024/04/18 06:24:54;;;;;;;8.77;7.57;;;;;;;4.74;83.53;95226.38;5432523;26;20248;-77
2024/04/18 06:27:19;;;;;;;4.63;4.20;;;;;;;4.41;84.42;95234.94;5429505;26;20277;-79
2024/04/18 06:29:47;;;;;;;4.47;4.07;;;;;;;4.36;85.19;95234.47;5434721;26;20254;-79
2024/04/18 06:32:12;;;;;;;5.37;4.30;;;;;;;4.39;84.67;95241.94;5428645;26;20339;-78
2024/04/18 06:34:37;;;;;;;3.13;2.83;;;;;;;4.39;83.88;95237.63;5426170;26;20251;-78
2024/04/18 06:37:05;;;;;;;4.63;3.93;;;;;;;4.38;83.28;95240.31;5422155;26;20355;-78
2024/04/18 06:39:31;;;;;;;13.87;9.10;;;;;;;4.39;82.31;95252.25;5432809;26;20609;-78
2024/04/18 06:41:56;;;;;;;9.70;6.73;;;;;;;4.26;82.75;95248.03;5400435;26;20253;-77
2024/04/18 06:44:21;;;;;;;13.83;8.30;;;;;;;4.43;81.43;95256.22;5429803;26;20233;-78
2024/04/18 06:46:47;;;;;;;9.67;4.87;;;;;;;4.28;81.05;95260.78;5424079;26;20265;-79
2024/04/18 06:49:13;;;;;;;12.00;8.30;;;;;;;4.53;81.01;95263.09;5389694;26;20243;-80
2024/04/18 06:51:38;;;;;;;4.40;3.50;;;;;;;4.66;80.31;95257.81;5385004;26;20255;-80
2024/04/18 06:54:03;;;;;;;10.13;6.80;;;;;;;4.71;79.79;95267.78;5433175;26;20299;-78
2024/04/18 06:56:29;;;;;;;11.23;7.20;;;;;;;4.33;80.61;95274.09;5429907;26;20247;-79
2024/04/18 06:58:54;;;;;;;1.70;1.60;;;;;;;4.25;80.47;95276.44;5437222;26;20230;-80
2024/04/18 07:01:19;;;;;;;10.47;6.43;;;;;;;4.38;81.05;95276.31;5386320;26;20269;-79
2024/04/18 07:03:44;;;;;;;11.00;5.83;;;;;;;4.59;79.36;95276.41;5438049;26;20366;-79
2024/04/18 07:06:11;;;;;;;14.53;9.23;;;;;;;5.15;78.89;95286.66;5428645;26;20287;-80
2024/04/18 07:08:36;;;;;;;9.07;4.73;;;;;;;5.31;77.24;95276.78;5397869;26;20242;-78
2024/04/18 07:11:01;;;;;;;17.83;9.00;;;;;;;5.31;78.52;95281.94;5434976;26;20247;-78
2024/04/18 07:13:28;;;;;;;9.53;5.17;;;;;;;5.33;77.78;95290.34;5427407;26;20234;-79
2024/04/18 07:15:53;;;;;;;13.00;7.07;;;;;;;5.48;76.94;95289.13;5401468;26;20269;-79
2024/04/18 07:18:18;;;;;;;25.30;12.63;;;;;;;5.20;77.07;95295.63;5403401;26;20253;-80
2024/04/18 07:20:43;;;;;;;13.93;7.63;;;;;;;5.49;77.45;95303.63;5432995;26;20292;-78
2024/04/18 07:23:09;;;;;;;6.20;3.30;;;;;;;5.48;76.74;95296.84;5430951;26;20334;-79
2024/04/18 07:25:37;;;;;;;9.70;5.20;;;;;;;5.18;76.98;95302.66;5390829;26;20239;-79
2024/04/18 07:28:02;;;;;;;3.67;2.77;;;;;;;5.02;77.01;95302.22;5406945;26;20328;-78
2024/04/18 07:30:27;;;;;;;11.37;6.30;;;;;;;4.94;77.98;95307.94;5430234;26;20250;-80
2024/04/18 07:32:53;;;;;;;29.13;14.40;;;;;;;4.77;77.66;95311.00;5429201;26;20236;-80
2024/04/18 07:35:18;;;;;;;2.63;1.30;;;;;;;4.61;78.12;95306.25;5443019;26;20311;-79
2024/04/18 07:37:43;;;;;;;0.70;0.70;;;;;;;4.54;79.06;95317.94;5445003;26;20235;-80
2024/04/18 07:40:15;;;;;;;0.60;0.60;;;;;;;4.12;79.55;95329.66;5403427;26;20243;-79
2024/04/18 07:42:40;;;;;;;0.40;0.40;;;;;;;4.08;79.54;95336.81;5406308;26;20781;-79
2024/04/18 07:45:05;;;;;;;0.40;0.40;;;;;;;4.09;79.89;95337.63;5441314;26;20239;-80
2024/04/18 07:47:31;;;;;;;0.53;0.53;;;;;;;4.24;80.17;95342.44;5433755;26;20411;-79
2024/04/18 07:49:56;;;;;;;0.67;0.67;;;;;;;4.53;80.34;95339.44;5441891;26;20314;-80
2024/04/18 07:52:21;;;;;;;0.77;0.77;;;;;;;4.70;80.50;95338.97;5439411;26;20301;-78
2024/04/18 07:54:47;;;;;;;0.50;0.50;;;;;;;4.64;78.99;95347.16;5432767;26;20242;-79
2024/04/18 07:57:12;;;;;;;0.40;0.40;;;;;;;4.70;79.07;95351.03;5436819;26;20237;-79
2024/04/18 07:59:38;;;;;;;0.70;0.60;;;;;;;4.74;79.99;95349.84;5437848;26;20479;-80
2024/04/18 08:02:03;;;;;;;1.03;0.93;;;;;;;5.29;79.52;95351.53;5428246;26;20259;-78
2024/04/18 08:04:29;;;;;;;0.77;0.60;;;;;;;5.54;77.76;95357.34;5416979;26;20235;-79
2024/04/18 08:06:54;;;;;;;0.77;0.70;;;;;;;5.76;78.87;95359.84;5407139;26;20568;-77
2024/04/18 08:09:20;;;;;;;1.47;1.37;;;;;;;5.85;77.37;95372.00;5396304;26;20244;-79
2024/04/18 08:11:45;;;;;;;75.37;37.93;;;;;;;5.83;77.56;95378.19;5448603;26;20314;-79
2024/04/18 08:14:10;;;;;;;15.53;13.83;;;;;;;5.72;77.21;95373.91;5439638;26;20280;-78
2024/04/18 08:16:36;;;;;;;9.30;8.50;;;;;;;5.45;76.93;95376.91;5435451;26;20376;-78
2024/04/18 08:19:01;;;;;;;7.23;6.73;;;;;;;5.35;76.47;95378.56;5433929;26;20246;-79
2024/04/18 08:21:27;;;;;;;12.90;12.00;;;;;;;5.65;77.47;95385.63;5429095;26;20318;-78
2024/04/18 08:23:52;;;;;;;7.10;6.60;;;;;;;5.79;76.66;95390.53;5423225;26;20578;-78
2024/04/18 08:26:18;;;;;;;4.63;4.23;;;;;;;6.02;77.35;95391.31;5392994;26;20239;-78
2024/04/18 08:28:43;;;;;;;3.53;3.07;;;;;;;6.05;77.71;95395.38;5430936;26;20274;-78
2024/04/18 08:31:09;;;;;;;2.83;2.50;;;;;;;6.04;76.71;95404.06;5437674;26;20250;-79
2024/04/18 08:33:34;;;;;;;2.90;2.00;;;;;;;5.85;75.96;95404.69;5403066;26;20235;-78
2024/04/18 08:35:59;;;;;;;2.80;2.23;;;;;;;6.19;76.40;95403.66;5398153;26;20274;-79
2024/04/18 08:38:24;;;;;;;3.10;2.80;;;;;;;6.30;76.43;95407.13;5423406;26;20272;-79
2024/04/18 08:40:53;;;;;;;3.33;2.60;;;;;;;6.36;74.10;95404.88;5404727;26;20235;-78
2024/04/18 08:43:18;;;;;;;5.27;4.00;;;;;;;6.60;75.74;95408.94;5404413;26;20289;-78
2024/04/18 08:45:45;;;;;;;4.10;3.70;;;;;;;6.41;75.52;95407.88;5442762;26;20238;-78
2024/04/18 08:48:10;;;;;;;4.77;4.30;;;;;;;6.37;75.72;95416.81;5434703;26;20816;-79
2024/04/18 08:50:38;;;;;;;4.40;4.00;;;;;;;6.44;75.55;95417.09;5395682;26;20247;-79
2024/04/18 08:53:04;;;;;;;4.70;4.30;;;;;;;6.11;77.10;95418.09;5439110;26;20278;-79
2024/04/18 08:55:32;;;;;;;5.20;4.03;;;;;;;6.09;76.84;95414.81;5433322;26;20648;-80
2024/04/18 08:58:02;;;;;;;6.40;5.00;;;;;;;6.33;75.35;95424.91;5434632;26;20321;-77
2024/04/18 09:00:28;;;;;;;4.70;4.30;;;;;;;6.28;76.32;95427.88;5443404;26;20286;-79
2024/04/18 09:02:55;;;;;;;4.67;4.23;;;;;;;6.75;76.32;95426.56;5448031;26;20234;-80
2024/04/18 09:05:20;;;;;;;5.07;4.33;;;;;;;6.96;74.08;95434.25;5431950;26;20238;-79
2024/04/18 09:07:45;;;;;;;4.70;4.30;;;;;;;6.67;73.55;95439.28;5402098;26;20412;-79
2024/04/18 09:10:11;;;;;;;5.17;4.43;;;;;;;6.60;73.65;95439.91;5425158;26;20280;-79
2024/04/18 09:12:36;;;;;;;5.57;4.80;;;;;;;6.61;74.36;95438.94;5446465;26;20239;-79
2024/04/18 09:15:04;;;;;;;5.80;5.07;;;;;;;6.65;74.45;95442.94;5439319;26;20230;-78
2024/04/18 09:17:30;;;;;;;6.03;5.10;;;;;;;6.89;75.31;95447.81;5402733;26;20266;-78
2024/04/18 09:19:55;;;;;;;6.07;5.47;;;;;;;7.00;74.48;95443.41;5432850;26;20767;-79
2024/04/18 09:22:21;;;;;;;9.07;5.13;;;;;;;6.75;74.04;95451.53;5426151;26;20271;-78
2024/04/18 09:24:46;;;;;;;6.60;6.00;;;;;;;6.71;74.68;95460.47;5437612;26;20242;-80
2024/04/18 09:27:15;;;;;;;6.70;5.43;;;;;;;7.30;74.30;95452.09;5426199;26;20272;-79
2024/04/18 09:29:44;;;;;;;6.43;5.37;;;;;;;7.08;72.55;95453.91;5427502;26;20227;-77
2024/04/18 09:32:11;;;;;;;6.70;5.70;;;;;;;6.69;75.71;95457.19;5419877;26;20239;-79
2024/04/18 09:34:38;;;;;;;7.63;6.13;;;;;;;7.04;74.07;95454.28;5429901;26;20735;-78
2024/04/18 09:37:07;;;;;;;5.90;5.13;;;;;;;6.99;71.00;95459.03;5411671;26;20243;-82
2024/04/18 09:39:34;;;;;;;8.40;6.37;;;;;;;6.99;71.94;95457.25;5425237;26;20248;-79
2024/04/18 09:42:08;;;;;;;7.93;5.83;;;;;;;7.39;69.20;95461.66;5427274;26;20375;-81
2024/04/18 09:44:36;;;;;;;7.13;5.97;;;;;;;6.65;70.93;95466.97;5396679;26;20251;-78
2024/04/18 09:47:02;;;;;;;8.23;6.10;;;;;;;7.36;70.88;95467.09;5427071;26;20285;-80
2024/04/18 09:49:28;;;;;;;9.33;6.77;;;;;;;7.43;69.92;95475.97;5387159;26;20352;-80
2024/04/18 09:51:55;;;;;;;8.30;6.90;;;;;;;7.35;72.88;95474.03;5429084;26;20247;-80
2024/04/18 09:54:21;;;;;;;7.47;6.67;;;;;;;7.86;70.85;95477.44;5400637;26;20279;-80
2024/04/18 09:56:46;;;;;;;6.90;6.10;;;;;;;7.69;69.71;95470.34;5430959;26;20284;-79
2024/04/18 09:59:13;;;;;;;6.20;5.60;;;;;;;8.42;68.99;95487.22;5437301;26;20234;-79
2024/04/18 10:01:40;;;;;;;6.80;6.20;;;;;;;8.46;68.39;95480.81;5422844;26;20277;-79
2024/04/18 10:04:05;;;;;;;7.00;6.30;;;;;;;8.48;67.73;95479.75;5411706;26;20633;-79
2024/04/18 10:06:36;;;;;;;7.63;6.93;;;;;;;8.53;66.13;95489.66;5426743;26;20256;-80
2024/04/18 10:09:01;;;;;;;7.93;5.73;;;;;;;8.44;67.21;95490.47;5433384;26;20230;-78
2024/04/18 10:11:27;;;;;;;5.73;5.13;;;;;;;8.42;65.39;95498.38;5419728;26;20293;-79
2024/04/18 10:13:59;;;;;;;7.50;5.63;;;;;;;8.62;64.85;95491.44;5427698;26;20231;-78
2024/04/18 10:16:24;;;;;;;5.77;4.70;;;;;;;9.14;64.02;95497.09;5423683;26;20277;-77
2024/04/18 10:18:51;;;;;;;7.23;4.67;;;;;;;9.11;61.58;95494.81;5438734;26;20716;-79
2024/04/18 10:21:25;;;;;;;6.30;5.27;;;;;;;9.42;60.84;95504.94;5397773;26;20242;-79
2024/04/18 10:23:52;;;;;;;5.83;5.23;;;;;;;9.44;65.03;95498.63;5391062;26;20255;-79
2024/04/18 10:26:18;;;;;;;6.20;5.60;;;;;;;9.28;62.23;95508.81;5386935;26;20243;-79
2024/04/18 10:28:45;;;;;;;6.07;5.30;;;;;;;8.90;61.92;95501.91;5401834;26;20342;-79
2024/04/18 10:31:11;;;;;;;6.43;5.80;;;;;;;8.94;63.12;95508.47;5422485;26;20755;-79
2024/04/18 10:33:38;;;;;;;6.70;5.70;;;;;;;9.17;61.71;95512.34;5421397;26;20235;-79
2024/04/18 10:36:07;;;;;;;6.60;6.00;;;;;;;9.35;62.88;95502.09;5400265;26;20270;-78
2024/04/18 10:38:33;;;;;;;7.30;6.13;;;;;;;9.93;62.12;95512.22;5431088;26;20231;-78
2024/04/18 10:41:02;;;;;;;10.03;6.93;;;;;;;9.23;61.64;95516.97;5425587;26;21098;-78
2024/04/18 10:43:28;;;;;;;7.23;6.10;;;;;;;9.19;62.13;95512.22;5397437;26;20295;-79
2024/04/18 10:45:55;;;;;;;7.03;6.43;;;;;;;9.29;62.07;95516.44;5394286;26;20248;-78
2024/04/18 10:48:21;;;;;;;8.63;6.90;;;;;;;9.44;63.39;95516.78;5387015;26;20273;-78
2024/04/18 10:50:48;;;;;;;7.00;5.73;;;;;;;8.26;63.21;95516.19;5396461;26;20257;-79
2024/04/18 10:53:14;;;;;;;6.87;6.27;;;;;;;8.97;63.31;95519.34;5426859;26;20294;-78
2024/04/18 10:55:39;;;;;;;7.87;7.07;;;;;;;9.19;65.96;95527.75;5432767;26;20347;-79
2024/04/18 10:58:04;;;;;;;7.07;5.90;;;;;;;8.23;60.99;95525.03;5427832;26;20234;-78
2024/04/18 11:00:31;;;;;;;8.13;6.77;;;;;;;7.76;66.28;95528.28;5393259;26;20286;-78
2024/04/18 11:02:57;;;;;;;6.77;6.17;;;;;;;7.27;70.96;95548.75;5406532;26;20276;-78
2024/04/18 11:05:22;;;;;;;7.20;6.60;;;;;;;6.27;75.98;95557.72;5440981;26;20243;-79
2024/04/18 11:07:50;;;;;;;6.17;5.67;;;;;;;6.52;75.83;95559.19;5427279;26;20231;-78
2024/04/18 11:10:15;;;;;;;5.70;5.20;;;;;;;6.16;75.33;95557.75;5394858;26;20253;-79
2024/04/18 11:12:41;;;;;;;5.00;4.60;;;;;;;5.64;74.65;95572.06;5405605;26;20294;-78
2024/04/18 11:15:06;;;;;;;4.47;4.07;;;;;;;4.57;79.27;95566.34;5401189;26;20273;-79
2024/04/18 11:17:35;;;;;;;5.23;4.73;;;;;;;4.76;79.27;95567.44;5397958;26;20254;-78
2024/04/18 11:20:00;;;;;;;5.03;4.53;;;;;;;5.43;78.02;95553.09;5433739;26;20264;-79
2024/04/18 11:22:26;;;;;;;6.33;4.70;;;;;;;5.60;78.70;95555.22;5410622;26;20246;-79
2024/04/18 11:24:51;;;;;;;5.47;4.97;;;;;;;5.85;78.43;95542.09;5412110;26;20245;-79
2024/04/18 11:27:16;;;;;;;5.80;5.17;;;;;;;6.24;79.13;95545.91;5398832;26;20259;-79
2024/04/18 11:29:46;;;;;;;6.03;5.27;;;;;;;6.63;77.61;95542.88;5426617;26;20227;-79
2024/04/18 11:32:11;;;;;;;5.50;4.47;;;;;;;6.99;77.05;95539.88;5434409;26;21068;-79
2024/04/18 11:34:38;;;;;;;4.93;4.40;;;;;;;7.31;75.45;95541.56;5397140;26;20273;-79
2024/04/18 11:37:07;;;;;;;5.83;4.60;;;;;;;7.33;73.81;95544.81;5446855;26;20290;-79